sensor_id;sensor_type;location;lat;lon;timestamp;P1;durP1;ratioP1;P2;durP2;ratioP2
45041;SDS011;30779;52.096;4.410;2022-11-20T00:00:34;13.43;;;8.98;;
45041;SDS011;30779;52.096;4.410;2022-11-20T00:03:35;15.05;;;9.30;;
45041;SDS011;30779;52.096;4.410;2022-11-20T00:06:36;15.77;;;9.63;;
45041;SDS011;30779;52.096;4.410;2022-11-20T00:09:37;14.75;;;9.98;;
45041;SDS011;30779;52.096;4.410;2022-11-20T00:12:38;14.27;;;8.75;;
45041;SDS011;30779;52.096;4.410;2022-11-20T00:15:39;16.25;;;9.98;;
45041;SDS011;30779;52.096;4.410;2022-11-20T00:18:40;16.17;;;9.95;;
45041;SDS011;30779;52.096;4.410;2022-11-20T00:21:44;16.40;;;9.95;;
45041;SDS011;30779;52.096;4.410;2022-11-20T00:24:45;13.27;;;8.82;;
45041;SDS011;30779;52.096;4.410;2022-11-20T00:27:46;16.05;;;9.90;;
45041;SDS011;30779;52.096;4.410;2022-11-20T00:30:47;15.18;;;9.52;;
45041;SDS011;30779;52.096;4.410;2022-11-20T00:33:49;15.57;;;10.43;;
45041;SDS011;30779;52.096;4.410;2022-11-20T00:36:51;14.15;;;8.80;;
45041;SDS011;30779;52.096;4.410;2022-11-20T00:39:57;17.75;;;10.05;;
45041;SDS011;30779;52.096;4.410;2022-11-20T00:42:58;15.45;;;9.73;;
45041;SDS011;30779;52.096;4.410;2022-11-20T00:46:00;13.25;;;9.20;;
45041;SDS011;30779;52.096;4.410;2022-11-20T00:49:01;13.70;;;9.45;;
45041;SDS011;30779;52.096;4.410;2022-11-20T00:52:02;15.27;;;9.10;;
45041;SDS011;30779;52.096;4.410;2022-11-20T00:55:03;14.48;;;9.52;;
45041;SDS011;30779;52.096;4.410;2022-11-20T00:58:04;15.20;;;10.15;;
45041;SDS011;30779;52.096;4.410;2022-11-20T01:01:07;20.58;;;10.10;;
45041;SDS011;30779;52.096;4.410;2022-11-20T01:04:08;15.02;;;9.38;;
45041;SDS011;30779;52.096;4.410;2022-11-20T01:07:09;15.60;;;8.55;;
45041;SDS011;30779;52.096;4.410;2022-11-20T01:10:10;14.38;;;9.32;;
45041;SDS011;30779;52.096;4.410;2022-11-20T01:13:11;15.73;;;9.48;;
45041;SDS011;30779;52.096;4.410;2022-11-20T01:16:31;17.60;;;10.25;;
45041;SDS011;30779;52.096;4.410;2022-11-20T01:19:32;15.52;;;10.45;;
45041;SDS011;30779;52.096;4.410;2022-11-20T01:22:33;17.23;;;10.48;;
45041;SDS011;30779;52.096;4.410;2022-11-20T01:25:34;15.43;;;9.75;;
45041;SDS011;30779;52.096;4.410;2022-11-20T01:28:35;17.85;;;9.68;;
45041;SDS011;30779;52.096;4.410;2022-11-20T01:31:37;16.40;;;10.20;;
45041;SDS011;30779;52.096;4.410;2022-11-20T01:34:38;14.63;;;10.02;;
45041;SDS011;30779;52.096;4.410;2022-11-20T01:37:39;16.55;;;10.50;;
45041;SDS011;30779;52.096;4.410;2022-11-20T01:40:40;17.35;;;9.85;;
45041;SDS011;30779;52.096;4.410;2022-11-20T01:43:41;14.98;;;10.02;;
45041;SDS011;30779;52.096;4.410;2022-11-20T01:46:58;15.13;;;10.02;;
45041;SDS011;30779;52.096;4.410;2022-11-20T01:50:05;16.35;;;10.98;;
45041;SDS011;30779;52.096;4.410;2022-11-20T01:53:08;15.93;;;9.95;;
45041;SDS011;30779;52.096;4.410;2022-11-20T01:56:11;18.17;;;9.43;;
45041;SDS011;30779;52.096;4.410;2022-11-20T01:59:13;18.40;;;10.70;;
45041;SDS011;30779;52.096;4.410;2022-11-20T02:02:16;19.55;;;11.15;;
45041;SDS011;30779;52.096;4.410;2022-11-20T02:05:20;14.80;;;9.95;;
45041;SDS011;30779;52.096;4.410;2022-11-20T02:08:23;16.08;;;10.63;;
45041;SDS011;30779;52.096;4.410;2022-11-20T02:11:24;16.48;;;9.85;;
45041;SDS011;30779;52.096;4.410;2022-11-20T02:14:25;16.42;;;10.15;;
45041;SDS011;30779;52.096;4.410;2022-11-20T02:17:27;18.05;;;10.55;;
45041;SDS011;30779;52.096;4.410;2022-11-20T02:20:28;17.52;;;10.07;;
45041;SDS011;30779;52.096;4.410;2022-11-20T02:23:33;15.77;;;10.38;;
45041;SDS011;30779;52.096;4.410;2022-11-20T02:26:47;16.42;;;10.13;;
45041;SDS011;30779;52.096;4.410;2022-11-20T02:29:53;18.55;;;10.77;;
45041;SDS011;30779;52.096;4.410;2022-11-20T02:32:55;18.00;;;10.35;;
45041;SDS011;30779;52.096;4.410;2022-11-20T02:35:56;17.38;;;10.43;;
45041;SDS011;30779;52.096;4.410;2022-11-20T02:38:57;17.35;;;10.27;;
45041;SDS011;30779;52.096;4.410;2022-11-20T02:42:00;19.92;;;10.70;;
45041;SDS011;30779;52.096;4.410;2022-11-20T02:45:02;17.88;;;11.60;;
45041;SDS011;30779;52.096;4.410;2022-11-20T02:48:05;16.33;;;10.48;;
45041;SDS011;30779;52.096;4.410;2022-11-20T02:51:06;17.15;;;10.63;;
45041;SDS011;30779;52.096;4.410;2022-11-20T02:54:07;17.35;;;10.40;;
45041;SDS011;30779;52.096;4.410;2022-11-20T02:57:08;18.52;;;10.48;;
45041;SDS011;30779;52.096;4.410;2022-11-20T03:00:09;19.33;;;11.93;;
45041;SDS011;30779;52.096;4.410;2022-11-20T03:03:10;16.15;;;10.38;;
45041;SDS011;30779;52.096;4.410;2022-11-20T03:06:11;17.20;;;11.30;;
45041;SDS011;30779;52.096;4.410;2022-11-20T03:09:12;16.33;;;10.45;;
45041;SDS011;30779;52.096;4.410;2022-11-20T03:12:13;17.20;;;10.52;;
45041;SDS011;30779;52.096;4.410;2022-11-20T03:15:14;18.67;;;10.55;;
45041;SDS011;30779;52.096;4.410;2022-11-20T03:18:15;17.48;;;10.90;;
45041;SDS011;30779;52.096;4.410;2022-11-20T03:21:16;17.17;;;10.82;;
45041;SDS011;30779;52.096;4.410;2022-11-20T03:24:17;17.58;;;10.52;;
45041;SDS011;30779;52.096;4.410;2022-11-20T03:27:18;20.42;;;10.73;;
45041;SDS011;30779;52.096;4.410;2022-11-20T03:30:19;19.48;;;10.50;;
45041;SDS011;30779;52.096;4.410;2022-11-20T03:33:20;17.30;;;10.45;;
45041;SDS011;30779;52.096;4.410;2022-11-20T03:36:21;17.25;;;10.40;;
45041;SDS011;30779;52.096;4.410;2022-11-20T03:39:22;17.15;;;11.15;;
45041;SDS011;30779;52.096;4.410;2022-11-20T03:42:23;17.23;;;10.18;;
45041;SDS011;30779;52.096;4.410;2022-11-20T03:45:43;17.02;;;10.35;;
45041;SDS011;30779;52.096;4.410;2022-11-20T03:48:44;17.48;;;11.10;;
45041;SDS011;30779;52.096;4.410;2022-11-20T03:51:45;18.73;;;10.10;;
45041;SDS011;30779;52.096;4.410;2022-11-20T03:54:46;18.05;;;10.82;;
45041;SDS011;30779;52.096;4.410;2022-11-20T03:57:47;17.45;;;11.23;;
45041;SDS011;30779;52.096;4.410;2022-11-20T04:00:48;16.27;;;10.60;;
45041;SDS011;30779;52.096;4.410;2022-11-20T04:03:49;16.80;;;10.77;;
45041;SDS011;30779;52.096;4.410;2022-11-20T04:06:50;19.70;;;11.73;;
45041;SDS011;30779;52.096;4.410;2022-11-20T04:09:51;16.92;;;10.52;;
45041;SDS011;30779;52.096;4.410;2022-11-20T04:12:52;20.25;;;11.23;;
45041;SDS011;30779;52.096;4.410;2022-11-20T04:15:56;19.67;;;12.52;;
45041;SDS011;30779;52.096;4.410;2022-11-20T04:18:58;19.02;;;11.43;;
45041;SDS011;30779;52.096;4.410;2022-11-20T04:21:59;18.42;;;11.63;;
45041;SDS011;30779;52.096;4.410;2022-11-20T04:25:00;17.05;;;11.45;;
45041;SDS011;30779;52.096;4.410;2022-11-20T04:28:01;18.10;;;10.60;;
45041;SDS011;30779;52.096;4.410;2022-11-20T04:31:06;16.92;;;11.13;;
45041;SDS011;30779;52.096;4.410;2022-11-20T04:34:07;20.20;;;10.50;;
45041;SDS011;30779;52.096;4.410;2022-11-20T04:37:08;19.40;;;11.57;;
45041;SDS011;30779;52.096;4.410;2022-11-20T04:40:10;20.67;;;11.68;;
45041;SDS011;30779;52.096;4.410;2022-11-20T04:43:11;19.60;;;12.02;;
45041;SDS011;30779;52.096;4.410;2022-11-20T04:46:12;18.75;;;10.27;;
45041;SDS011;30779;52.096;4.410;2022-11-20T04:49:13;17.20;;;10.52;;
45041;SDS011;30779;52.096;4.410;2022-11-20T04:52:14;17.77;;;10.65;;
45041;SDS011;30779;52.096;4.410;2022-11-20T04:55:15;19.50;;;11.18;;
45041;SDS011;30779;52.096;4.410;2022-11-20T04:58:16;18.23;;;11.00;;
45041;SDS011;30779;52.096;4.410;2022-11-20T05:01:18;18.33;;;10.38;;
45041;SDS011;30779;52.096;4.410;2022-11-20T05:04:19;17.10;;;10.27;;
45041;SDS011;30779;52.096;4.410;2022-11-20T05:07:20;15.52;;;10.52;;
45041;SDS011;30779;52.096;4.410;2022-11-20T05:10:21;19.70;;;11.27;;
45041;SDS011;30779;52.096;4.410;2022-11-20T05:13:22;18.02;;;11.48;;
45041;SDS011;30779;52.096;4.410;2022-11-20T05:16:24;18.15;;;11.20;;
45041;SDS011;30779;52.096;4.410;2022-11-20T05:19:25;17.27;;;11.07;;
45041;SDS011;30779;52.096;4.410;2022-11-20T05:22:26;16.75;;;11.20;;
45041;SDS011;30779;52.096;4.410;2022-11-20T05:25:27;20.20;;;11.48;;
45041;SDS011;30779;52.096;4.410;2022-11-20T05:28:28;16.55;;;10.88;;
45041;SDS011;30779;52.096;4.410;2022-11-20T05:31:30;17.95;;;11.15;;
45041;SDS011;30779;52.096;4.410;2022-11-20T05:34:31;16.42;;;10.07;;
45041;SDS011;30779;52.096;4.410;2022-11-20T05:37:32;20.65;;;11.68;;
45041;SDS011;30779;52.096;4.410;2022-11-20T05:40:33;18.65;;;11.38;;
45041;SDS011;30779;52.096;4.410;2022-11-20T05:43:34;16.10;;;10.73;;
45041;SDS011;30779;52.096;4.410;2022-11-20T05:46:36;18.48;;;10.93;;
45041;SDS011;30779;52.096;4.410;2022-11-20T05:49:37;22.00;;;11.95;;
45041;SDS011;30779;52.096;4.410;2022-11-20T05:52:38;22.10;;;12.13;;
45041;SDS011;30779;52.096;4.410;2022-11-20T05:55:39;16.33;;;11.13;;
45041;SDS011;30779;52.096;4.410;2022-11-20T05:58:40;20.50;;;12.38;;
45041;SDS011;30779;52.096;4.410;2022-11-20T06:01:41;21.27;;;11.32;;
45041;SDS011;30779;52.096;4.410;2022-11-20T06:04:42;18.48;;;11.75;;
45041;SDS011;30779;52.096;4.410;2022-11-20T06:07:43;19.92;;;12.00;;
45041;SDS011;30779;52.096;4.410;2022-11-20T06:10:44;20.05;;;11.07;;
45041;SDS011;30779;52.096;4.410;2022-11-20T06:13:45;21.20;;;13.40;;
45041;SDS011;30779;52.096;4.410;2022-11-20T06:16:46;21.73;;;12.20;;
45041;SDS011;30779;52.096;4.410;2022-11-20T06:19:47;23.83;;;13.32;;
45041;SDS011;30779;52.096;4.410;2022-11-20T06:22:48;20.60;;;12.80;;
45041;SDS011;30779;52.096;4.410;2022-11-20T06:25:49;17.52;;;11.60;;
45041;SDS011;30779;52.096;4.410;2022-11-20T06:28:50;20.95;;;13.13;;
45041;SDS011;30779;52.096;4.410;2022-11-20T06:31:51;20.42;;;12.60;;
45041;SDS011;30779;52.096;4.410;2022-11-20T06:34:52;19.55;;;11.35;;
45041;SDS011;30779;52.096;4.410;2022-11-20T06:37:53;19.58;;;12.18;;
45041;SDS011;30779;52.096;4.410;2022-11-20T06:40:56;22.23;;;12.90;;
45041;SDS011;30779;52.096;4.410;2022-11-20T06:43:57;21.45;;;12.43;;
45041;SDS011;30779;52.096;4.410;2022-11-20T06:46:58;18.77;;;11.82;;
45041;SDS011;30779;52.096;4.410;2022-11-20T06:49:59;19.90;;;12.55;;
45041;SDS011;30779;52.096;4.410;2022-11-20T06:53:01;18.20;;;11.73;;
45041;SDS011;30779;52.096;4.410;2022-11-20T06:56:03;19.52;;;11.63;;
45041;SDS011;30779;52.096;4.410;2022-11-20T06:59:05;21.17;;;13.35;;
45041;SDS011;30779;52.096;4.410;2022-11-20T07:02:08;18.27;;;12.10;;
45041;SDS011;30779;52.096;4.410;2022-11-20T07:05:10;17.27;;;11.25;;
45041;SDS011;30779;52.096;4.410;2022-11-20T07:08:11;19.23;;;12.75;;
45041;SDS011;30779;52.096;4.410;2022-11-20T07:11:12;20.52;;;12.57;;
45041;SDS011;30779;52.096;4.410;2022-11-20T07:14:13;20.35;;;13.18;;
45041;SDS011;30779;52.096;4.410;2022-11-20T07:17:14;23.05;;;13.70;;
45041;SDS011;30779;52.096;4.410;2022-11-20T07:20:15;23.00;;;13.75;;
45041;SDS011;30779;52.096;4.410;2022-11-20T07:23:16;24.65;;;12.93;;
45041;SDS011;30779;52.096;4.410;2022-11-20T07:26:17;22.05;;;13.05;;
45041;SDS011;30779;52.096;4.410;2022-11-20T07:29:19;24.90;;;13.38;;
45041;SDS011;30779;52.096;4.410;2022-11-20T07:32:20;21.45;;;12.82;;
45041;SDS011;30779;52.096;4.410;2022-11-20T07:35:22;22.23;;;13.80;;
45041;SDS011;30779;52.096;4.410;2022-11-20T07:38:23;25.55;;;14.45;;
45041;SDS011;30779;52.096;4.410;2022-11-20T07:41:24;25.48;;;13.93;;
45041;SDS011;30779;52.096;4.410;2022-11-20T07:44:25;26.90;;;14.95;;
45041;SDS011;30779;52.096;4.410;2022-11-20T07:47:26;23.60;;;13.48;;
45041;SDS011;30779;52.096;4.410;2022-11-20T07:50:27;18.33;;;12.65;;
45041;SDS011;30779;52.096;4.410;2022-11-20T07:53:28;21.25;;;13.50;;
45041;SDS011;30779;52.096;4.410;2022-11-20T07:56:29;18.67;;;13.10;;
45041;SDS011;30779;52.096;4.410;2022-11-20T07:59:30;21.50;;;14.15;;
45041;SDS011;30779;52.096;4.410;2022-11-20T08:02:31;21.70;;;11.93;;
45041;SDS011;30779;52.096;4.410;2022-11-20T08:05:32;19.80;;;12.70;;
45041;SDS011;30779;52.096;4.410;2022-11-20T08:08:34;21.92;;;13.35;;
45041;SDS011;30779;52.096;4.410;2022-11-20T08:11:35;23.70;;;14.40;;
45041;SDS011;30779;52.096;4.410;2022-11-20T08:14:55;25.40;;;12.55;;
45041;SDS011;30779;52.096;4.410;2022-11-20T08:17:59;21.60;;;12.65;;
45041;SDS011;30779;52.096;4.410;2022-11-20T08:21:03;22.08;;;13.07;;
45041;SDS011;30779;52.096;4.410;2022-11-20T08:24:05;21.67;;;13.77;;
45041;SDS011;30779;52.096;4.410;2022-11-20T08:27:06;23.40;;;13.88;;
45041;SDS011;30779;52.096;4.410;2022-11-20T08:30:07;20.02;;;12.52;;
45041;SDS011;30779;52.096;4.410;2022-11-20T08:33:08;21.77;;;13.90;;
45041;SDS011;30779;52.096;4.410;2022-11-20T08:36:09;23.92;;;13.48;;
45041;SDS011;30779;52.096;4.410;2022-11-20T08:39:11;22.40;;;13.48;;
45041;SDS011;30779;52.096;4.410;2022-11-20T08:42:13;25.58;;;14.15;;
45041;SDS011;30779;52.096;4.410;2022-11-20T08:45:14;22.25;;;13.88;;
45041;SDS011;30779;52.096;4.410;2022-11-20T08:48:15;21.90;;;13.85;;
45041;SDS011;30779;52.096;4.410;2022-11-20T08:51:16;22.83;;;14.63;;
45041;SDS011;30779;52.096;4.410;2022-11-20T08:54:17;22.15;;;13.57;;
45041;SDS011;30779;52.096;4.410;2022-11-20T08:57:21;22.27;;;14.82;;
45041;SDS011;30779;52.096;4.410;2022-11-20T09:00:22;25.60;;;14.75;;
45041;SDS011;30779;52.096;4.410;2022-11-20T09:03:23;22.65;;;15.00;;
45041;SDS011;30779;52.096;4.410;2022-11-20T09:06:26;26.52;;;15.63;;
45041;SDS011;30779;52.096;4.410;2022-11-20T09:09:27;23.83;;;14.82;;
45041;SDS011;30779;52.096;4.410;2022-11-20T09:12:28;19.98;;;14.18;;
45041;SDS011;30779;52.096;4.410;2022-11-20T09:15:29;25.10;;;16.23;;
45041;SDS011;30779;52.096;4.410;2022-11-20T09:18:31;25.33;;;16.23;;
45041;SDS011;30779;52.096;4.410;2022-11-20T09:21:32;25.25;;;15.73;;
45041;SDS011;30779;52.096;4.410;2022-11-20T09:24:33;24.52;;;15.23;;
45041;SDS011;30779;52.096;4.410;2022-11-20T09:27:34;24.05;;;15.05;;
45041;SDS011;30779;52.096;4.410;2022-11-20T09:30:35;25.00;;;16.20;;
45041;SDS011;30779;52.096;4.410;2022-11-20T09:33:36;24.17;;;15.23;;
45041;SDS011;30779;52.096;4.410;2022-11-20T09:36:37;20.27;;;14.60;;
45041;SDS011;30779;52.096;4.410;2022-11-20T09:39:38;23.35;;;15.10;;
45041;SDS011;30779;52.096;4.410;2022-11-20T09:49:19;23.65;;;15.75;;
45041;SDS011;30779;52.096;4.410;2022-11-20T09:55:43;24.27;;;15.55;;
45041;SDS011;30779;52.096;4.410;2022-11-20T09:58:50;29.58;;;17.05;;
45041;SDS011;30779;52.096;4.410;2022-11-20T10:01:52;26.85;;;15.73;;
45041;SDS011;30779;52.096;4.410;2022-11-20T10:08:20;26.52;;;16.63;;
45041;SDS011;30779;52.096;4.410;2022-11-20T10:11:38;27.65;;;17.30;;
45041;SDS011;30779;52.096;4.410;2022-11-20T10:14:57;23.92;;;17.10;;
45041;SDS011;30779;52.096;4.410;2022-11-20T10:30:38;32.20;;;18.15;;
45041;SDS011;30779;52.096;4.410;2022-11-20T10:33:41;28.27;;;17.50;;
45041;SDS011;30779;52.096;4.410;2022-11-20T10:36:44;29.52;;;18.02;;
45041;SDS011;30779;52.096;4.410;2022-11-20T10:39:58;28.67;;;18.05;;
45041;SDS011;30779;52.096;4.410;2022-11-20T10:43:02;26.60;;;16.85;;
45041;SDS011;30779;52.096;4.410;2022-11-20T10:46:08;30.52;;;18.27;;
45041;SDS011;30779;52.096;4.410;2022-11-20T10:49:12;30.27;;;19.83;;
45041;SDS011;30779;52.096;4.410;2022-11-20T10:55:50;31.42;;;19.95;;
45041;SDS011;30779;52.096;4.410;2022-11-20T10:59:03;35.13;;;21.92;;
45041;SDS011;30779;52.096;4.410;2022-11-20T11:02:15;40.17;;;22.92;;
45041;SDS011;30779;52.096;4.410;2022-11-20T11:05:25;48.67;;;25.00;;
45041;SDS011;30779;52.096;4.410;2022-11-20T11:08:29;33.00;;;20.48;;
45041;SDS011;30779;52.096;4.410;2022-11-20T11:11:33;37.55;;;20.58;;
45041;SDS011;30779;52.096;4.410;2022-11-20T11:14:50;34.95;;;20.65;;
45041;SDS011;30779;52.096;4.410;2022-11-20T11:17:51;34.10;;;20.20;;
45041;SDS011;30779;52.096;4.410;2022-11-20T11:20:53;29.92;;;19.40;;
45041;SDS011;30779;52.096;4.410;2022-11-20T11:24:01;28.10;;;19.23;;
45041;SDS011;30779;52.096;4.410;2022-11-20T11:27:03;28.80;;;18.55;;
45041;SDS011;30779;52.096;4.410;2022-11-20T11:30:13;32.53;;;19.48;;
45041;SDS011;30779;52.096;4.410;2022-11-20T11:33:28;33.97;;;20.10;;
45041;SDS011;30779;52.096;4.410;2022-11-20T11:39:30;32.33;;;20.10;;
45041;SDS011;30779;52.096;4.410;2022-11-20T11:42:31;35.00;;;19.58;;
45041;SDS011;30779;52.096;4.410;2022-11-20T11:45:36;31.65;;;20.83;;
45041;SDS011;30779;52.096;4.410;2022-11-20T11:51:42;42.15;;;22.02;;
45041;SDS011;30779;52.096;4.410;2022-11-20T11:54:55;32.30;;;19.75;;
45041;SDS011;30779;52.096;4.410;2022-11-20T11:58:09;37.65;;;21.77;;
45041;SDS011;30779;52.096;4.410;2022-11-20T12:07:36;36.90;;;20.40;;
45041;SDS011;30779;52.096;4.410;2022-11-20T12:16:47;35.95;;;21.08;;
45041;SDS011;30779;52.096;4.410;2022-11-20T12:19:48;37.30;;;21.92;;
45041;SDS011;30779;52.096;4.410;2022-11-20T12:22:55;42.05;;;22.42;;
45041;SDS011;30779;52.096;4.410;2022-11-20T12:25:57;37.30;;;20.13;;
45041;SDS011;30779;52.096;4.410;2022-11-20T12:29:12;37.10;;;22.55;;
45041;SDS011;30779;52.096;4.410;2022-11-20T12:48:30;42.42;;;24.92;;
45041;SDS011;30779;52.096;4.410;2022-11-20T12:54:48;41.75;;;23.73;;
45041;SDS011;30779;52.096;4.410;2022-11-20T13:07:36;52.45;;;26.23;;
45041;SDS011;30779;52.096;4.410;2022-11-20T13:17:05;58.53;;;27.02;;
45041;SDS011;30779;52.096;4.410;2022-11-20T13:20:14;49.97;;;26.75;;
45041;SDS011;30779;52.096;4.410;2022-11-20T13:23:25;55.50;;;29.30;;
45041;SDS011;30779;52.096;4.410;2022-11-20T13:26:27;61.70;;;28.42;;
45041;SDS011;30779;52.096;4.410;2022-11-20T13:29:28;61.70;;;30.42;;
45041;SDS011;30779;52.096;4.410;2022-11-20T13:32:30;65.65;;;29.55;;
45041;SDS011;30779;52.096;4.410;2022-11-20T13:35:41;72.03;;;29.92;;
45041;SDS011;30779;52.096;4.410;2022-11-20T13:38:46;67.93;;;30.73;;
45041;SDS011;30779;52.096;4.410;2022-11-20T13:41:53;72.53;;;30.25;;
45041;SDS011;30779;52.096;4.410;2022-11-20T13:44:54;70.53;;;31.35;;
45041;SDS011;30779;52.096;4.410;2022-11-20T13:47:56;73.47;;;31.13;;
45041;SDS011;30779;52.096;4.410;2022-11-20T14:00:25;77.03;;;33.58;;
45041;SDS011;30779;52.096;4.410;2022-11-20T14:03:29;88.72;;;33.95;;
45041;SDS011;30779;52.096;4.410;2022-11-20T14:06:38;90.78;;;34.60;;
45041;SDS011;30779;52.096;4.410;2022-11-20T14:09:51;82.25;;;33.90;;
45041;SDS011;30779;52.096;4.410;2022-11-20T14:12:53;79.60;;;33.42;;
45041;SDS011;30779;52.096;4.410;2022-11-20T14:15:57;79.32;;;33.83;;
45041;SDS011;30779;52.096;4.410;2022-11-20T14:19:19;79.22;;;32.88;;
45041;SDS011;30779;52.096;4.410;2022-11-20T14:22:21;81.55;;;31.85;;
45041;SDS011;30779;52.096;4.410;2022-11-20T14:25:23;88.65;;;32.88;;
45041;SDS011;30779;52.096;4.410;2022-11-20T14:28:30;88.00;;;35.05;;
45041;SDS011;30779;52.096;4.410;2022-11-20T14:31:31;85.40;;;33.95;;
45041;SDS011;30779;52.096;4.410;2022-11-20T14:34:35;90.50;;;35.20;;
45041;SDS011;30779;52.096;4.410;2022-11-20T14:37:38;86.05;;;32.50;;
45041;SDS011;30779;52.096;4.410;2022-11-20T14:40:39;90.55;;;35.05;;
45041;SDS011;30779;52.096;4.410;2022-11-20T14:43:45;99.47;;;35.85;;
45041;SDS011;30779;52.096;4.410;2022-11-20T14:46:46;82.47;;;34.70;;
45041;SDS011;30779;52.096;4.410;2022-11-20T14:49:47;84.65;;;36.88;;
45041;SDS011;30779;52.096;4.410;2022-11-20T14:52:56;74.38;;;32.10;;
45041;SDS011;30779;52.096;4.410;2022-11-20T14:55:58;87.47;;;35.25;;
45041;SDS011;30779;52.096;4.410;2022-11-20T14:59:00;93.53;;;37.28;;
45041;SDS011;30779;52.096;4.410;2022-11-20T15:02:05;96.72;;;38.33;;
45041;SDS011;30779;52.096;4.410;2022-11-20T15:05:06;85.10;;;33.70;;
45041;SDS011;30779;52.096;4.410;2022-11-20T15:08:08;92.28;;;33.05;;
45041;SDS011;30779;52.096;4.410;2022-11-20T15:11:20;88.28;;;33.92;;
45041;SDS011;30779;52.096;4.410;2022-11-20T15:14:24;85.97;;;33.10;;
45041;SDS011;30779;52.096;4.410;2022-11-20T15:17:25;82.03;;;32.08;;
45041;SDS011;30779;52.096;4.410;2022-11-20T15:20:27;87.72;;;34.47;;
45041;SDS011;30779;52.096;4.410;2022-11-20T15:23:29;102.03;;;35.80;;
45041;SDS011;30779;52.096;4.410;2022-11-20T15:26:30;84.60;;;32.22;;
45041;SDS011;30779;52.096;4.410;2022-11-20T15:29:31;81.68;;;34.30;;
45041;SDS011;30779;52.096;4.410;2022-11-20T15:32:32;69.40;;;27.42;;
45041;SDS011;30779;52.096;4.410;2022-11-20T15:35:33;59.33;;;26.27;;
45041;SDS011;30779;52.096;4.410;2022-11-20T15:38:34;55.35;;;23.75;;
45041;SDS011;30779;52.096;4.410;2022-11-20T15:41:36;51.20;;;22.38;;
45041;SDS011;30779;52.096;4.410;2022-11-20T15:44:37;57.42;;;22.63;;
45041;SDS011;30779;52.096;4.410;2022-11-20T15:47:38;49.25;;;24.58;;
45041;SDS011;30779;52.096;4.410;2022-11-20T15:50:59;55.30;;;24.27;;
45041;SDS011;30779;52.096;4.410;2022-11-20T15:54:21;47.45;;;22.80;;
45041;SDS011;30779;52.096;4.410;2022-11-20T15:57:22;52.20;;;24.55;;
45041;SDS011;30779;52.096;4.410;2022-11-20T16:00:23;49.53;;;23.95;;
45041;SDS011;30779;52.096;4.410;2022-11-20T16:03:24;47.80;;;23.63;;
45041;SDS011;30779;52.096;4.410;2022-11-20T16:06:25;49.40;;;21.45;;
45041;SDS011;30779;52.096;4.410;2022-11-20T16:09:26;50.22;;;25.13;;
45041;SDS011;30779;52.096;4.410;2022-11-20T16:12:27;50.00;;;23.55;;
45041;SDS011;30779;52.096;4.410;2022-11-20T16:15:50;43.70;;;21.67;;
45041;SDS011;30779;52.096;4.410;2022-11-20T16:18:52;47.45;;;21.20;;
45041;SDS011;30779;52.096;4.410;2022-11-20T16:21:53;47.50;;;21.58;;
45041;SDS011;30779;52.096;4.410;2022-11-20T16:24:54;38.22;;;19.45;;
45041;SDS011;30779;52.096;4.410;2022-11-20T16:27:55;42.10;;;20.73;;
45041;SDS011;30779;52.096;4.410;2022-11-20T16:30:56;46.78;;;21.40;;
45041;SDS011;30779;52.096;4.410;2022-11-20T16:34:01;44.40;;;21.10;;
45041;SDS011;30779;52.096;4.410;2022-11-20T16:37:06;36.15;;;18.27;;
45041;SDS011;30779;52.096;4.410;2022-11-20T16:40:08;50.17;;;22.90;;
45041;SDS011;30779;52.096;4.410;2022-11-20T16:43:09;45.35;;;21.58;;
45041;SDS011;30779;52.096;4.410;2022-11-20T16:46:16;46.28;;;21.15;;
45041;SDS011;30779;52.096;4.410;2022-11-20T16:49:17;39.85;;;20.35;;
45041;SDS011;30779;52.096;4.410;2022-11-20T16:52:18;48.13;;;21.27;;
45041;SDS011;30779;52.096;4.410;2022-11-20T16:55:19;40.20;;;21.35;;
45041;SDS011;30779;52.096;4.410;2022-11-20T16:58:20;41.38;;;19.55;;
45041;SDS011;30779;52.096;4.410;2022-11-20T17:01:21;39.78;;;19.17;;
45041;SDS011;30779;52.096;4.410;2022-11-20T17:04:23;44.83;;;20.60;;
45041;SDS011;30779;52.096;4.410;2022-11-20T17:07:24;44.72;;;21.65;;
45041;SDS011;30779;52.096;4.410;2022-11-20T17:10:25;43.05;;;21.40;;
45041;SDS011;30779;52.096;4.410;2022-11-20T17:13:26;47.55;;;21.98;;
45041;SDS011;30779;52.096;4.410;2022-11-20T17:16:27;41.50;;;19.20;;
45041;SDS011;30779;52.096;4.410;2022-11-20T17:19:31;46.83;;;20.25;;
45041;SDS011;30779;52.096;4.410;2022-11-20T17:25:33;37.30;;;19.48;;
45041;SDS011;30779;52.096;4.410;2022-11-20T17:28:34;43.08;;;18.75;;
45041;SDS011;30779;52.096;4.410;2022-11-20T17:31:35;41.15;;;20.27;;
45041;SDS011;30779;52.096;4.410;2022-11-20T17:34:39;41.25;;;18.75;;
45041;SDS011;30779;52.096;4.410;2022-11-20T17:37:40;38.92;;;18.75;;
45041;SDS011;30779;52.096;4.410;2022-11-20T17:40:41;42.83;;;18.90;;
45041;SDS011;30779;52.096;4.410;2022-11-20T17:43:43;40.20;;;18.05;;
45041;SDS011;30779;52.096;4.410;2022-11-20T17:46:44;43.63;;;18.52;;
45041;SDS011;30779;52.096;4.410;2022-11-20T17:49:45;46.13;;;20.60;;
45041;SDS011;30779;52.096;4.410;2022-11-20T17:52:46;57.22;;;23.02;;
45041;SDS011;30779;52.096;4.410;2022-11-20T17:55:53;40.70;;;18.35;;
45041;SDS011;30779;52.096;4.410;2022-11-20T17:59:13;44.55;;;19.40;;
45041;SDS011;30779;52.096;4.410;2022-11-20T18:02:14;40.08;;;18.58;;
45041;SDS011;30779;52.096;4.410;2022-11-20T18:05:15;38.80;;;18.40;;
45041;SDS011;30779;52.096;4.410;2022-11-20T18:08:16;40.38;;;17.85;;
45041;SDS011;30779;52.096;4.410;2022-11-20T18:11:27;39.78;;;18.45;;
45041;SDS011;30779;52.096;4.410;2022-11-20T18:14:28;44.92;;;21.50;;
45041;SDS011;30779;52.096;4.410;2022-11-20T18:17:35;46.88;;;22.42;;
45041;SDS011;30779;52.096;4.410;2022-11-20T18:20:36;46.88;;;19.42;;
45041;SDS011;30779;52.096;4.410;2022-11-20T18:23:37;42.88;;;18.67;;
45041;SDS011;30779;52.096;4.410;2022-11-20T18:26:38;41.85;;;19.08;;
45041;SDS011;30779;52.096;4.410;2022-11-20T18:29:39;52.33;;;20.42;;
45041;SDS011;30779;52.096;4.410;2022-11-20T18:32:40;40.58;;;18.60;;
45041;SDS011;30779;52.096;4.410;2022-11-20T18:35:41;47.72;;;19.58;;
45041;SDS011;30779;52.096;4.410;2022-11-20T18:38:42;47.00;;;21.55;;
45041;SDS011;30779;52.096;4.410;2022-11-20T18:41:43;51.67;;;19.88;;
45041;SDS011;30779;52.096;4.410;2022-11-20T18:45:03;44.85;;;19.30;;
45041;SDS011;30779;52.096;4.410;2022-11-20T18:48:05;56.05;;;21.25;;
45041;SDS011;30779;52.096;4.410;2022-11-20T18:51:06;50.22;;;22.00;;
45041;SDS011;30779;52.096;4.410;2022-11-20T18:54:07;48.75;;;21.80;;
45041;SDS011;30779;52.096;4.410;2022-11-20T18:57:08;51.95;;;20.17;;
45041;SDS011;30779;52.096;4.410;2022-11-20T19:00:13;53.25;;;20.63;;
45041;SDS011;30779;52.096;4.410;2022-11-20T19:03:14;55.42;;;20.50;;
45041;SDS011;30779;52.096;4.410;2022-11-20T19:06:15;56.35;;;22.00;;
45041;SDS011;30779;52.096;4.410;2022-11-20T19:09:16;46.22;;;20.92;;
45041;SDS011;30779;52.096;4.410;2022-11-20T19:12:18;60.63;;;22.35;;
45041;SDS011;30779;52.096;4.410;2022-11-20T19:15:19;56.33;;;23.98;;
45041;SDS011;30779;52.096;4.410;2022-11-20T19:18:20;71.65;;;28.13;;
45041;SDS011;30779;52.096;4.410;2022-11-20T19:21:22;54.03;;;25.20;;
45041;SDS011;30779;52.096;4.410;2022-11-20T19:24:23;85.03;;;36.50;;
45041;SDS011;30779;52.096;4.410;2022-11-20T19:27:26;68.63;;;26.63;;